Terminal Aerodrome Forecast
Issued by NWS

Home | Current Version | Previous Version | Graphics & Text | Print | Product List | Glossary On
Versions: 1 2 3 4 5 6 7 8 9 10 11 12 13 14 15 16 17 18 19 20 21 22 23 24 25 26 27 28 29 30 31 32 33 34 35 36 37 38 39 40 41
000
FTUS43 KLOT 220400 AAB
TAFMDW
TAF AMD
KMDW 220434Z 2205/2224 16005KT 6SM BR VCTS SCT040 BKN060CB OVC100
     FM220700 VRB04KT 5SM -SHRA BR VCTS OVC045CB
      TEMPO 2208/2212 2SM +TSRA BR SCT015 OVC035CB
     FM221200 22004KT 6SM BR BKN040
     FM221600 25006KT P6SM SCT040 BKN100
     FM222000 06007KT P6SM SCT050 BKN100 PROB30 2220/2222 4SM TSRA
      OVC040CB=

USA.gov is the U.S. government's official web portal to all federal, state and local government web resources and services.